sensor_id;sensor_type;location;lat;lon;timestamp;P1;durP1;ratioP1;P2;durP2;ratioP2
61709;SDS011;47633;51.494;5.386;2023-09-12T00:00:30;7.13;;;6.03;;
61709;SDS011;47633;51.494;5.386;2023-09-12T00:02:56;8.52;;;6.05;;
61709;SDS011;47633;51.494;5.386;2023-09-12T00:05:21;8.30;;;5.95;;
61709;SDS011;47633;51.494;5.386;2023-09-12T00:07:46;8.93;;;5.65;;
61709;SDS011;47633;51.494;5.386;2023-09-12T00:10:11;7.55;;;5.68;;
61709;SDS011;47633;51.494;5.386;2023-09-12T00:12:37;8.63;;;5.70;;
61709;SDS011;47633;51.494;5.386;2023-09-12T00:15:02;7.60;;;5.75;;
61709;SDS011;47633;51.494;5.386;2023-09-12T00:17:29;7.78;;;6.22;;
61709;SDS011;47633;51.494;5.386;2023-09-12T00:19:54;7.53;;;5.70;;
61709;SDS011;47633;51.494;5.386;2023-09-12T00:22:20;7.18;;;5.45;;
61709;SDS011;47633;51.494;5.386;2023-09-12T00:24:45;8.35;;;5.63;;
61709;SDS011;47633;51.494;5.386;2023-09-12T00:27:10;8.15;;;6.10;;
61709;SDS011;47633;51.494;5.386;2023-09-12T00:29:35;8.98;;;6.32;;
61709;SDS011;47633;51.494;5.386;2023-09-12T00:32:04;7.40;;;5.82;;
61709;SDS011;47633;51.494;5.386;2023-09-12T00:34:29;8.18;;;5.50;;
61709;SDS011;47633;51.494;5.386;2023-09-12T00:36:55;10.98;;;6.85;;
61709;SDS011;47633;51.494;5.386;2023-09-12T00:39:20;9.23;;;6.20;;
61709;SDS011;47633;51.494;5.386;2023-09-12T00:41:45;7.28;;;5.55;;
61709;SDS011;47633;51.494;5.386;2023-09-12T00:44:10;7.97;;;5.68;;
61709;SDS011;47633;51.494;5.386;2023-09-12T00:46:36;7.60;;;5.40;;
61709;SDS011;47633;51.494;5.386;2023-09-12T00:49:02;9.07;;;6.63;;
61709;SDS011;47633;51.494;5.386;2023-09-12T00:51:29;6.97;;;5.32;;
61709;SDS011;47633;51.494;5.386;2023-09-12T00:53:57;7.85;;;6.15;;
61709;SDS011;47633;51.494;5.386;2023-09-12T00:56:22;8.50;;;5.88;;
61709;SDS011;47633;51.494;5.386;2023-09-12T00:58:48;8.68;;;5.82;;
61709;SDS011;47633;51.494;5.386;2023-09-12T01:01:16;9.05;;;6.03;;
61709;SDS011;47633;51.494;5.386;2023-09-12T01:03:42;7.32;;;5.75;;
61709;SDS011;47633;51.494;5.386;2023-09-12T01:06:07;7.03;;;5.43;;
61709;SDS011;47633;51.494;5.386;2023-09-12T01:08:35;6.93;;;5.75;;
61709;SDS011;47633;51.494;5.386;2023-09-12T01:11:04;7.80;;;5.32;;
61709;SDS011;47633;51.494;5.386;2023-09-12T01:13:29;8.02;;;5.45;;
61709;SDS011;47633;51.494;5.386;2023-09-12T01:15:55;9.20;;;6.20;;
61709;SDS011;47633;51.494;5.386;2023-09-12T01:18:20;8.00;;;6.10;;
61709;SDS011;47633;51.494;5.386;2023-09-12T01:20:53;7.60;;;6.00;;
61709;SDS011;47633;51.494;5.386;2023-09-12T01:29:21;8.43;;;6.18;;
61709;SDS011;47633;51.494;5.386;2023-09-12T01:31:47;7.25;;;5.72;;
61709;SDS011;47633;51.494;5.386;2023-09-12T01:34:15;8.70;;;5.88;;
61709;SDS011;47633;51.494;5.386;2023-09-12T01:36:41;7.47;;;5.88;;
61709;SDS011;47633;51.494;5.386;2023-09-12T01:39:06;7.80;;;6.10;;
61709;SDS011;47633;51.494;5.386;2023-09-12T01:41:32;8.00;;;6.07;;
61709;SDS011;47633;51.494;5.386;2023-09-12T01:44:00;7.90;;;5.80;;
61709;SDS011;47633;51.494;5.386;2023-09-12T01:46:27;8.63;;;5.95;;
61709;SDS011;47633;51.494;5.386;2023-09-12T01:48:55;8.73;;;5.57;;
61709;SDS011;47633;51.494;5.386;2023-09-12T01:51:22;8.23;;;6.07;;
61709;SDS011;47633;51.494;5.386;2023-09-12T01:53:49;8.75;;;5.60;;
61709;SDS011;47633;51.494;5.386;2023-09-12T01:56:16;7.43;;;5.68;;
61709;SDS011;47633;51.494;5.386;2023-09-12T01:58:42;8.00;;;6.22;;
61709;SDS011;47633;51.494;5.386;2023-09-12T02:01:08;8.02;;;5.70;;
61709;SDS011;47633;51.494;5.386;2023-09-12T02:03:33;7.75;;;6.43;;
61709;SDS011;47633;51.494;5.386;2023-09-12T02:05:58;7.55;;;6.13;;
61709;SDS011;47633;51.494;5.386;2023-09-12T02:08:24;7.10;;;5.47;;
61709;SDS011;47633;51.494;5.386;2023-09-12T02:10:49;8.25;;;5.72;;
61709;SDS011;47633;51.494;5.386;2023-09-12T02:13:14;7.25;;;5.38;;
61709;SDS011;47633;51.494;5.386;2023-09-12T02:15:40;8.15;;;5.63;;
61709;SDS011;47633;51.494;5.386;2023-09-12T02:18:05;7.93;;;5.97;;
61709;SDS011;47633;51.494;5.386;2023-09-12T02:20:31;7.88;;;5.50;;
61709;SDS011;47633;51.494;5.386;2023-09-12T02:22:57;8.02;;;5.40;;
61709;SDS011;47633;51.494;5.386;2023-09-12T02:25:22;6.75;;;5.00;;
61709;SDS011;47633;51.494;5.386;2023-09-12T02:27:48;7.00;;;5.10;;
61709;SDS011;47633;51.494;5.386;2023-09-12T02:30:13;6.20;;;4.78;;
61709;SDS011;47633;51.494;5.386;2023-09-12T02:32:38;7.78;;;5.05;;
61709;SDS011;47633;51.494;5.386;2023-09-12T02:35:03;7.43;;;5.30;;
61709;SDS011;47633;51.494;5.386;2023-09-12T02:37:29;6.63;;;4.70;;
61709;SDS011;47633;51.494;5.386;2023-09-12T02:39:54;7.05;;;4.45;;
61709;SDS011;47633;51.494;5.386;2023-09-12T02:42:20;7.10;;;4.55;;
61709;SDS011;47633;51.494;5.386;2023-09-12T02:44:45;6.00;;;4.55;;
61709;SDS011;47633;51.494;5.386;2023-09-12T02:47:10;8.10;;;5.10;;
61709;SDS011;47633;51.494;5.386;2023-09-12T02:49:36;6.00;;;4.78;;
61709;SDS011;47633;51.494;5.386;2023-09-12T02:52:01;6.25;;;4.78;;
61709;SDS011;47633;51.494;5.386;2023-09-12T02:54:26;6.72;;;5.05;;
61709;SDS011;47633;51.494;5.386;2023-09-12T02:56:52;7.18;;;4.80;;
61709;SDS011;47633;51.494;5.386;2023-09-12T02:59:17;7.88;;;4.97;;
61709;SDS011;47633;51.494;5.386;2023-09-12T03:01:44;5.95;;;4.57;;
61709;SDS011;47633;51.494;5.386;2023-09-12T03:04:09;7.47;;;5.03;;
61709;SDS011;47633;51.494;5.386;2023-09-12T03:06:34;6.55;;;4.50;;
61709;SDS011;47633;51.494;5.386;2023-09-12T03:09:00;5.85;;;4.63;;
61709;SDS011;47633;51.494;5.386;2023-09-12T03:11:26;6.57;;;4.80;;
61709;SDS011;47633;51.494;5.386;2023-09-12T03:13:52;6.40;;;4.70;;
61709;SDS011;47633;51.494;5.386;2023-09-12T03:16:18;7.25;;;4.35;;
61709;SDS011;47633;51.494;5.386;2023-09-12T03:18:43;7.65;;;4.53;;
61709;SDS011;47633;51.494;5.386;2023-09-12T03:21:08;6.30;;;4.78;;
61709;SDS011;47633;51.494;5.386;2023-09-12T03:23:34;7.93;;;4.75;;
61709;SDS011;47633;51.494;5.386;2023-09-12T03:26:00;7.93;;;5.00;;
61709;SDS011;47633;51.494;5.386;2023-09-12T03:28:27;6.72;;;4.82;;
61709;SDS011;47633;51.494;5.386;2023-09-12T03:30:53;6.32;;;4.78;;
61709;SDS011;47633;51.494;5.386;2023-09-12T03:33:29;6.75;;;4.82;;
61709;SDS011;47633;51.494;5.386;2023-09-12T03:35:54;5.95;;;4.15;;
61709;SDS011;47633;51.494;5.386;2023-09-12T03:38:20;5.60;;;4.32;;
61709;SDS011;47633;51.494;5.386;2023-09-12T03:40:45;6.50;;;4.53;;
61709;SDS011;47633;51.494;5.386;2023-09-12T03:43:10;6.63;;;4.73;;
61709;SDS011;47633;51.494;5.386;2023-09-12T03:45:36;6.10;;;4.70;;
61709;SDS011;47633;51.494;5.386;2023-09-12T03:48:02;6.55;;;5.07;;
61709;SDS011;47633;51.494;5.386;2023-09-12T03:50:28;8.43;;;4.70;;
61709;SDS011;47633;51.494;5.386;2023-09-12T03:52:53;7.07;;;4.80;;
61709;SDS011;47633;51.494;5.386;2023-09-12T03:55:18;6.35;;;4.95;;
61709;SDS011;47633;51.494;5.386;2023-09-12T03:57:44;5.85;;;4.28;;
61709;SDS011;47633;51.494;5.386;2023-09-12T04:00:09;7.70;;;4.55;;
61709;SDS011;47633;51.494;5.386;2023-09-12T04:02:35;7.47;;;4.80;;
61709;SDS011;47633;51.494;5.386;2023-09-12T04:05:00;6.00;;;4.10;;
61709;SDS011;47633;51.494;5.386;2023-09-12T04:07:25;6.67;;;4.70;;
61709;SDS011;47633;51.494;5.386;2023-09-12T04:09:50;8.27;;;4.43;;
61709;SDS011;47633;51.494;5.386;2023-09-12T04:12:16;6.93;;;4.78;;
61709;SDS011;47633;51.494;5.386;2023-09-12T04:14:41;5.85;;;4.05;;
61709;SDS011;47633;51.494;5.386;2023-09-12T04:17:07;7.65;;;5.03;;
61709;SDS011;47633;51.494;5.386;2023-09-12T04:19:39;6.63;;;4.57;;
61709;SDS011;47633;51.494;5.386;2023-09-12T04:22:04;6.15;;;4.20;;
61709;SDS011;47633;51.494;5.386;2023-09-12T04:24:29;6.13;;;4.68;;
61709;SDS011;47633;51.494;5.386;2023-09-12T04:26:55;7.03;;;4.68;;
61709;SDS011;47633;51.494;5.386;2023-09-12T04:29:20;5.80;;;4.30;;
61709;SDS011;47633;51.494;5.386;2023-09-12T04:31:45;6.43;;;4.55;;
61709;SDS011;47633;51.494;5.386;2023-09-12T04:34:11;7.30;;;4.53;;
61709;SDS011;47633;51.494;5.386;2023-09-12T04:36:36;5.93;;;4.83;;
61709;SDS011;47633;51.494;5.386;2023-09-12T04:39:01;6.63;;;4.93;;
61709;SDS011;47633;51.494;5.386;2023-09-12T04:41:27;5.47;;;3.97;;
61709;SDS011;47633;51.494;5.386;2023-09-12T04:43:52;6.03;;;4.50;;
61709;SDS011;47633;51.494;5.386;2023-09-12T04:46:17;7.40;;;4.32;;
61709;SDS011;47633;51.494;5.386;2023-09-12T04:48:43;8.40;;;4.50;;
61709;SDS011;47633;51.494;5.386;2023-09-12T04:51:08;6.10;;;4.57;;
61709;SDS011;47633;51.494;5.386;2023-09-12T04:53:34;6.20;;;4.53;;
61709;SDS011;47633;51.494;5.386;2023-09-12T04:56:00;5.63;;;4.40;;
61709;SDS011;47633;51.494;5.386;2023-09-12T04:58:26;6.90;;;4.53;;
61709;SDS011;47633;51.494;5.386;2023-09-12T05:00:52;5.80;;;4.47;;
61709;SDS011;47633;51.494;5.386;2023-09-12T05:03:17;5.55;;;4.28;;
61709;SDS011;47633;51.494;5.386;2023-09-12T05:05:45;5.95;;;4.28;;
61709;SDS011;47633;51.494;5.386;2023-09-12T05:08:11;6.60;;;4.20;;
61709;SDS011;47633;51.494;5.386;2023-09-12T05:10:37;5.80;;;4.30;;
61709;SDS011;47633;51.494;5.386;2023-09-12T05:13:04;5.57;;;3.95;;
61709;SDS011;47633;51.494;5.386;2023-09-12T05:15:29;7.00;;;4.22;;
61709;SDS011;47633;51.494;5.386;2023-09-12T05:17:55;5.85;;;4.15;;
61709;SDS011;47633;51.494;5.386;2023-09-12T05:20:20;5.75;;;4.32;;
61709;SDS011;47633;51.494;5.386;2023-09-12T05:22:45;5.93;;;4.22;;
61709;SDS011;47633;51.494;5.386;2023-09-12T05:25:10;6.22;;;4.32;;
61709;SDS011;47633;51.494;5.386;2023-09-12T05:27:36;5.82;;;4.47;;
61709;SDS011;47633;51.494;5.386;2023-09-12T05:30:01;6.03;;;3.83;;
61709;SDS011;47633;51.494;5.386;2023-09-12T05:32:27;7.40;;;4.03;;
61709;SDS011;47633;51.494;5.386;2023-09-12T05:34:52;6.22;;;4.32;;
61709;SDS011;47633;51.494;5.386;2023-09-12T05:37:17;5.90;;;4.40;;
61709;SDS011;47633;51.494;5.386;2023-09-12T05:39:44;6.38;;;4.75;;
61709;SDS011;47633;51.494;5.386;2023-09-12T05:42:09;6.40;;;4.30;;
61709;SDS011;47633;51.494;5.386;2023-09-12T05:44:34;6.33;;;4.60;;
61709;SDS011;47633;51.494;5.386;2023-09-12T05:46:59;7.22;;;4.90;;
61709;SDS011;47633;51.494;5.386;2023-09-12T05:49:25;6.75;;;4.47;;
61709;SDS011;47633;51.494;5.386;2023-09-12T05:51:50;5.40;;;4.20;;
61709;SDS011;47633;51.494;5.386;2023-09-12T05:54:15;5.93;;;4.25;;
61709;SDS011;47633;51.494;5.386;2023-09-12T05:56:41;7.85;;;4.20;;
61709;SDS011;47633;51.494;5.386;2023-09-12T05:59:06;5.97;;;4.40;;
61709;SDS011;47633;51.494;5.386;2023-09-12T06:01:32;6.05;;;4.10;;
61709;SDS011;47633;51.494;5.386;2023-09-12T06:03:57;7.68;;;4.43;;
61709;SDS011;47633;51.494;5.386;2023-09-12T06:06:22;10.10;;;4.20;;
61709;SDS011;47633;51.494;5.386;2023-09-12T06:08:48;6.35;;;4.30;;
61709;SDS011;47633;51.494;5.386;2023-09-12T06:11:13;6.28;;;4.32;;
61709;SDS011;47633;51.494;5.386;2023-09-12T06:13:39;6.95;;;4.53;;
61709;SDS011;47633;51.494;5.386;2023-09-12T06:16:04;5.72;;;4.18;;
61709;SDS011;47633;51.494;5.386;2023-09-12T06:18:30;6.75;;;4.22;;
61709;SDS011;47633;51.494;5.386;2023-09-12T06:20:57;9.25;;;4.88;;
61709;SDS011;47633;51.494;5.386;2023-09-12T06:23:23;6.45;;;4.30;;
61709;SDS011;47633;51.494;5.386;2023-09-12T06:25:49;8.52;;;4.70;;
61709;SDS011;47633;51.494;5.386;2023-09-12T06:28:24;6.68;;;4.22;;
61709;SDS011;47633;51.494;5.386;2023-09-12T06:30:53;7.32;;;4.60;;
61709;SDS011;47633;51.494;5.386;2023-09-12T06:33:18;9.80;;;4.57;;
61709;SDS011;47633;51.494;5.386;2023-09-12T06:35:47;13.48;;;4.65;;
61709;SDS011;47633;51.494;5.386;2023-09-12T06:38:13;8.30;;;5.13;;
61709;SDS011;47633;51.494;5.386;2023-09-12T06:40:39;7.75;;;4.85;;
61709;SDS011;47633;51.494;5.386;2023-09-12T06:43:04;9.25;;;5.03;;
61709;SDS011;47633;51.494;5.386;2023-09-12T06:45:29;7.40;;;4.63;;
61709;SDS011;47633;51.494;5.386;2023-09-12T06:47:58;9.13;;;4.97;;
61709;SDS011;47633;51.494;5.386;2023-09-12T06:50:23;8.40;;;4.90;;
61709;SDS011;47633;51.494;5.386;2023-09-12T06:52:48;9.68;;;5.40;;
61709;SDS011;47633;51.494;5.386;2023-09-12T06:55:14;11.53;;;5.37;;
61709;SDS011;47633;51.494;5.386;2023-09-12T06:57:39;7.55;;;5.10;;
61709;SDS011;47633;51.494;5.386;2023-09-12T07:00:05;8.45;;;5.20;;
61709;SDS011;47633;51.494;5.386;2023-09-12T07:02:51;6.70;;;5.03;;
61709;SDS011;47633;51.494;5.386;2023-09-12T07:05:16;8.95;;;5.10;;
61709;SDS011;47633;51.494;5.386;2023-09-12T07:07:42;11.23;;;5.28;;
61709;SDS011;47633;51.494;5.386;2023-09-12T07:10:07;8.30;;;6.00;;
61709;SDS011;47633;51.494;5.386;2023-09-12T07:12:32;10.23;;;4.80;;
61709;SDS011;47633;51.494;5.386;2023-09-12T07:14:59;7.90;;;5.03;;
61709;SDS011;47633;51.494;5.386;2023-09-12T07:17:27;10.70;;;5.63;;
61709;SDS011;47633;51.494;5.386;2023-09-12T07:19:53;9.88;;;5.45;;
61709;SDS011;47633;51.494;5.386;2023-09-12T07:22:18;11.37;;;5.20;;
61709;SDS011;47633;51.494;5.386;2023-09-12T07:24:43;7.32;;;5.13;;
61709;SDS011;47633;51.494;5.386;2023-09-12T07:27:08;8.98;;;4.88;;
61709;SDS011;47633;51.494;5.386;2023-09-12T07:29:34;8.85;;;4.82;;
61709;SDS011;47633;51.494;5.386;2023-09-12T07:31:59;8.15;;;4.63;;
61709;SDS011;47633;51.494;5.386;2023-09-12T07:34:24;6.85;;;4.60;;
61709;SDS011;47633;51.494;5.386;2023-09-12T07:36:50;9.85;;;4.90;;
61709;SDS011;47633;51.494;5.386;2023-09-12T07:39:19;6.90;;;4.63;;
61709;SDS011;47633;51.494;5.386;2023-09-12T07:41:45;9.83;;;4.77;;
61709;SDS011;47633;51.494;5.386;2023-09-12T07:44:10;9.32;;;4.70;;
61709;SDS011;47633;51.494;5.386;2023-09-12T07:46:41;7.85;;;4.95;;
61709;SDS011;47633;51.494;5.386;2023-09-12T07:49:08;6.75;;;4.50;;
61709;SDS011;47633;51.494;5.386;2023-09-12T07:51:34;7.78;;;4.65;;
61709;SDS011;47633;51.494;5.386;2023-09-12T07:54:00;8.52;;;4.63;;
61709;SDS011;47633;51.494;5.386;2023-09-12T07:56:25;6.32;;;4.50;;
61709;SDS011;47633;51.494;5.386;2023-09-12T07:58:51;6.80;;;4.70;;
61709;SDS011;47633;51.494;5.386;2023-09-12T08:01:17;6.28;;;4.18;;
61709;SDS011;47633;51.494;5.386;2023-09-12T08:03:42;6.57;;;4.35;;
61709;SDS011;47633;51.494;5.386;2023-09-12T08:06:09;6.05;;;4.25;;
61709;SDS011;47633;51.494;5.386;2023-09-12T08:08:34;6.72;;;4.53;;
61709;SDS011;47633;51.494;5.386;2023-09-12T08:11:00;6.55;;;4.40;;
61709;SDS011;47633;51.494;5.386;2023-09-12T08:13:27;7.15;;;4.35;;
61709;SDS011;47633;51.494;5.386;2023-09-12T08:15:54;8.68;;;4.65;;
61709;SDS011;47633;51.494;5.386;2023-09-12T08:18:19;7.85;;;4.43;;
61709;SDS011;47633;51.494;5.386;2023-09-12T08:20:45;7.57;;;4.25;;
61709;SDS011;47633;51.494;5.386;2023-09-12T08:23:10;6.40;;;4.80;;
61709;SDS011;47633;51.494;5.386;2023-09-12T08:25:35;6.57;;;4.47;;
61709;SDS011;47633;51.494;5.386;2023-09-12T08:28:01;7.10;;;4.75;;
61709;SDS011;47633;51.494;5.386;2023-09-12T08:30:26;6.13;;;4.47;;
61709;SDS011;47633;51.494;5.386;2023-09-12T08:32:55;6.53;;;4.20;;
61709;SDS011;47633;51.494;5.386;2023-09-12T08:35:21;8.32;;;4.43;;
61709;SDS011;47633;51.494;5.386;2023-09-12T08:37:46;6.38;;;4.30;;
61709;SDS011;47633;51.494;5.386;2023-09-12T08:40:11;6.65;;;4.45;;
61709;SDS011;47633;51.494;5.386;2023-09-12T08:42:40;7.57;;;4.78;;
61709;SDS011;47633;51.494;5.386;2023-09-12T08:45:12;6.82;;;3.78;;
61709;SDS011;47633;51.494;5.386;2023-09-12T08:47:42;6.72;;;4.00;;
61709;SDS011;47633;51.494;5.386;2023-09-12T08:50:12;6.45;;;4.03;;
61709;SDS011;47633;51.494;5.386;2023-09-12T08:52:40;7.18;;;4.28;;
61709;SDS011;47633;51.494;5.386;2023-09-12T08:55:07;5.95;;;3.88;;
61709;SDS011;47633;51.494;5.386;2023-09-12T08:57:32;6.28;;;4.32;;
61709;SDS011;47633;51.494;5.386;2023-09-12T09:00:00;6.07;;;4.00;;
61709;SDS011;47633;51.494;5.386;2023-09-12T09:02:31;5.60;;;3.50;;
61709;SDS011;47633;51.494;5.386;2023-09-12T09:04:58;6.50;;;3.97;;
61709;SDS011;47633;51.494;5.386;2023-09-12T09:07:23;6.40;;;3.83;;
61709;SDS011;47633;51.494;5.386;2023-09-12T09:09:49;5.32;;;3.63;;
61709;SDS011;47633;51.494;5.386;2023-09-12T09:12:18;6.35;;;3.80;;
61709;SDS011;47633;51.494;5.386;2023-09-12T09:14:43;6.63;;;3.95;;
61709;SDS011;47633;51.494;5.386;2023-09-12T09:17:09;5.82;;;3.83;;
61709;SDS011;47633;51.494;5.386;2023-09-12T09:19:42;5.85;;;3.80;;
61709;SDS011;47633;51.494;5.386;2023-09-12T09:22:09;6.40;;;3.83;;
61709;SDS011;47633;51.494;5.386;2023-09-12T09:24:34;6.45;;;4.25;;
61709;SDS011;47633;51.494;5.386;2023-09-12T09:27:00;6.65;;;4.53;;
61709;SDS011;47633;51.494;5.386;2023-09-12T09:29:26;6.38;;;4.32;;
61709;SDS011;47633;51.494;5.386;2023-09-12T09:31:56;7.00;;;4.15;;
61709;SDS011;47633;51.494;5.386;2023-09-12T09:34:23;6.57;;;4.47;;
61709;SDS011;47633;51.494;5.386;2023-09-12T09:36:49;6.97;;;4.53;;
61709;SDS011;47633;51.494;5.386;2023-09-12T09:39:23;7.68;;;5.03;;
61709;SDS011;47633;51.494;5.386;2023-09-12T09:44:20;7.03;;;4.32;;
61709;SDS011;47633;51.494;5.386;2023-09-12T09:46:49;7.53;;;4.90;;
61709;SDS011;47633;51.494;5.386;2023-09-12T09:49:17;7.22;;;4.68;;
61709;SDS011;47633;51.494;5.386;2023-09-12T09:51:44;7.70;;;5.15;;
61709;SDS011;47633;51.494;5.386;2023-09-12T09:54:13;8.48;;;5.13;;
61709;SDS011;47633;51.494;5.386;2023-09-12T09:56:46;7.18;;;5.18;;
61709;SDS011;47633;51.494;5.386;2023-09-12T09:59:31;8.43;;;5.53;;
61709;SDS011;47633;51.494;5.386;2023-09-12T10:01:59;9.27;;;5.03;;
61709;SDS011;47633;51.494;5.386;2023-09-12T10:04:26;7.68;;;4.50;;
61709;SDS011;47633;51.494;5.386;2023-09-12T10:06:53;8.73;;;5.25;;
61709;SDS011;47633;51.494;5.386;2023-09-12T10:09:22;9.13;;;4.40;;
61709;SDS011;47633;51.494;5.386;2023-09-12T10:11:51;10.43;;;4.45;;
61709;SDS011;47633;51.494;5.386;2023-09-12T10:14:17;8.80;;;5.53;;
61709;SDS011;47633;51.494;5.386;2023-09-12T10:16:45;8.73;;;5.90;;
61709;SDS011;47633;51.494;5.386;2023-09-12T10:19:17;10.00;;;5.30;;
61709;SDS011;47633;51.494;5.386;2023-09-12T10:22:03;12.68;;;5.47;;
61709;SDS011;47633;51.494;5.386;2023-09-12T10:24:52;7.82;;;5.50;;
61709;SDS011;47633;51.494;5.386;2023-09-12T10:27:19;8.38;;;4.93;;
61709;SDS011;47633;51.494;5.386;2023-09-12T10:29:46;7.43;;;4.88;;
61709;SDS011;47633;51.494;5.386;2023-09-12T10:32:14;7.88;;;5.38;;
61709;SDS011;47633;51.494;5.386;2023-09-12T10:34:40;7.47;;;4.90;;
61709;SDS011;47633;51.494;5.386;2023-09-12T10:37:10;9.20;;;5.40;;
61709;SDS011;47633;51.494;5.386;2023-09-12T10:39:40;8.73;;;5.00;;
61709;SDS011;47633;51.494;5.386;2023-09-12T10:42:07;10.35;;;5.88;;
61709;SDS011;47633;51.494;5.386;2023-09-12T10:44:34;10.93;;;7.03;;
61709;SDS011;47633;51.494;5.386;2023-09-12T10:47:00;16.95;;;11.40;;
61709;SDS011;47633;51.494;5.386;2023-09-12T10:49:26;19.65;;;12.90;;
61709;SDS011;47633;51.494;5.386;2023-09-12T10:51:52;21.13;;;13.55;;
61709;SDS011;47633;51.494;5.386;2023-09-12T10:54:25;19.45;;;12.40;;
61709;SDS011;47633;51.494;5.386;2023-09-12T10:57:04;17.75;;;12.40;;
61709;SDS011;47633;51.494;5.386;2023-09-12T10:59:31;16.55;;;11.82;;
61709;SDS011;47633;51.494;5.386;2023-09-12T11:04:57;16.80;;;11.80;;
61709;SDS011;47633;51.494;5.386;2023-09-12T11:12:37;17.42;;;11.75;;
61709;SDS011;47633;51.494;5.386;2023-09-12T11:15:03;16.20;;;10.80;;
61709;SDS011;47633;51.494;5.386;2023-09-12T11:17:43;14.40;;;10.43;;
61709;SDS011;47633;51.494;5.386;2023-09-12T11:20:50;13.75;;;9.65;;
61709;SDS011;47633;51.494;5.386;2023-09-12T11:23:18;13.40;;;9.63;;
61709;SDS011;47633;51.494;5.386;2023-09-12T11:25:44;16.08;;;11.35;;
61709;SDS011;47633;51.494;5.386;2023-09-12T11:28:09;20.70;;;13.98;;
61709;SDS011;47633;51.494;5.386;2023-09-12T11:30:35;19.45;;;15.27;;
61709;SDS011;47633;51.494;5.386;2023-09-12T11:33:03;18.77;;;13.40;;
61709;SDS011;47633;51.494;5.386;2023-09-12T11:35:29;20.45;;;14.80;;
61709;SDS011;47633;51.494;5.386;2023-09-12T11:38:02;20.83;;;16.15;;
61709;SDS011;47633;51.494;5.386;2023-09-12T11:42:59;18.75;;;14.55;;
61709;SDS011;47633;51.494;5.386;2023-09-12T11:45:25;21.75;;;15.13;;
61709;SDS011;47633;51.494;5.386;2023-09-12T11:47:51;21.52;;;14.48;;
61709;SDS011;47633;51.494;5.386;2023-09-12T11:50:35;21.35;;;15.60;;
61709;SDS011;47633;51.494;5.386;2023-09-12T11:53:10;18.77;;;14.43;;
61709;SDS011;47633;51.494;5.386;2023-09-12T11:55:37;17.52;;;13.60;;
61709;SDS011;47633;51.494;5.386;2023-09-12T11:58:11;18.38;;;14.13;;
61709;SDS011;47633;51.494;5.386;2023-09-12T12:00:46;17.95;;;13.18;;
61709;SDS011;47633;51.494;5.386;2023-09-12T12:03:32;15.93;;;12.40;;
61709;SDS011;47633;51.494;5.386;2023-09-12T12:05:58;15.40;;;11.95;;
61709;SDS011;47633;51.494;5.386;2023-09-12T12:08:25;15.82;;;11.60;;
61709;SDS011;47633;51.494;5.386;2023-09-12T12:10:51;15.85;;;11.50;;
61709;SDS011;47633;51.494;5.386;2023-09-12T12:13:18;15.00;;;11.25;;
61709;SDS011;47633;51.494;5.386;2023-09-12T12:15:44;14.57;;;10.30;;
61709;SDS011;47633;51.494;5.386;2023-09-12T12:18:10;14.88;;;10.05;;
61709;SDS011;47633;51.494;5.386;2023-09-12T12:20:36;14.32;;;10.85;;
61709;SDS011;47633;51.494;5.386;2023-09-12T12:23:01;12.55;;;8.90;;
61709;SDS011;47633;51.494;5.386;2023-09-12T12:25:31;12.13;;;9.38;;
61709;SDS011;47633;51.494;5.386;2023-09-12T12:27:59;14.40;;;9.18;;
61709;SDS011;47633;51.494;5.386;2023-09-12T12:30:25;12.07;;;8.50;;
61709;SDS011;47633;51.494;5.386;2023-09-12T12:32:50;14.52;;;10.18;;
61709;SDS011;47633;51.494;5.386;2023-09-12T12:35:18;12.50;;;9.57;;
61709;SDS011;47633;51.494;5.386;2023-09-12T12:37:44;11.52;;;8.85;;
61709;SDS011;47633;51.494;5.386;2023-09-12T12:40:11;12.10;;;8.27;;
61709;SDS011;47633;51.494;5.386;2023-09-12T12:42:39;11.60;;;8.60;;
61709;SDS011;47633;51.494;5.386;2023-09-12T12:45:17;13.10;;;8.27;;
61709;SDS011;47633;51.494;5.386;2023-09-12T12:47:44;10.63;;;7.57;;
61709;SDS011;47633;51.494;5.386;2023-09-12T12:50:10;11.30;;;7.70;;
61709;SDS011;47633;51.494;5.386;2023-09-12T12:52:38;15.57;;;10.93;;
61709;SDS011;47633;51.494;5.386;2023-09-12T12:55:11;15.52;;;12.10;;
61709;SDS011;47633;51.494;5.386;2023-09-12T12:57:38;19.05;;;11.85;;
61709;SDS011;47633;51.494;5.386;2023-09-12T13:00:05;17.45;;;12.13;;
61709;SDS011;47633;51.494;5.386;2023-09-12T13:02:41;16.13;;;11.80;;
61709;SDS011;47633;51.494;5.386;2023-09-12T13:05:19;17.90;;;12.40;;
61709;SDS011;47633;51.494;5.386;2023-09-12T13:07:44;14.82;;;11.60;;
61709;SDS011;47633;51.494;5.386;2023-09-12T13:10:09;15.10;;;10.75;;
61709;SDS011;47633;51.494;5.386;2023-09-12T13:12:35;14.57;;;10.13;;
61709;SDS011;47633;51.494;5.386;2023-09-12T13:15:01;14.63;;;10.18;;
61709;SDS011;47633;51.494;5.386;2023-09-12T13:17:26;14.98;;;9.20;;
61709;SDS011;47633;51.494;5.386;2023-09-12T13:19:52;15.02;;;11.90;;
61709;SDS011;47633;51.494;5.386;2023-09-12T13:22:17;12.60;;;8.95;;
61709;SDS011;47633;51.494;5.386;2023-09-12T13:24:42;11.40;;;8.73;;
61709;SDS011;47633;51.494;5.386;2023-09-12T13:27:08;13.25;;;9.45;;
61709;SDS011;47633;51.494;5.386;2023-09-12T13:29:33;15.02;;;10.63;;
61709;SDS011;47633;51.494;5.386;2023-09-12T13:31:58;15.02;;;10.07;;
61709;SDS011;47633;51.494;5.386;2023-09-12T13:34:24;12.70;;;10.18;;
61709;SDS011;47633;51.494;5.386;2023-09-12T13:36:49;13.97;;;9.27;;
61709;SDS011;47633;51.494;5.386;2023-09-12T13:39:14;13.25;;;8.15;;
61709;SDS011;47633;51.494;5.386;2023-09-12T13:41:40;11.02;;;7.93;;
61709;SDS011;47633;51.494;5.386;2023-09-12T13:44:05;12.40;;;7.65;;
61709;SDS011;47633;51.494;5.386;2023-09-12T13:46:30;11.02;;;7.82;;
61709;SDS011;47633;51.494;5.386;2023-09-12T13:48:56;10.80;;;7.25;;
61709;SDS011;47633;51.494;5.386;2023-09-12T13:51:25;11.27;;;7.43;;
61709;SDS011;47633;51.494;5.386;2023-09-12T13:53:51;12.32;;;7.28;;
61709;SDS011;47633;51.494;5.386;2023-09-12T13:56:16;9.75;;;6.68;;
61709;SDS011;47633;51.494;5.386;2023-09-12T13:58:41;11.02;;;7.00;;
61709;SDS011;47633;51.494;5.386;2023-09-12T14:01:06;9.02;;;6.65;;
61709;SDS011;47633;51.494;5.386;2023-09-12T14:03:32;9.13;;;6.72;;
61709;SDS011;47633;51.494;5.386;2023-09-12T14:05:57;9.90;;;7.07;;
61709;SDS011;47633;51.494;5.386;2023-09-12T14:08:23;9.65;;;6.85;;
61709;SDS011;47633;51.494;5.386;2023-09-12T14:10:48;10.25;;;7.28;;
61709;SDS011;47633;51.494;5.386;2023-09-12T14:13:13;10.38;;;6.68;;
61709;SDS011;47633;51.494;5.386;2023-09-12T14:15:38;8.38;;;6.53;;
61709;SDS011;47633;51.494;5.386;2023-09-12T14:18:04;8.98;;;6.47;;
61709;SDS011;47633;51.494;5.386;2023-09-12T14:20:29;9.73;;;6.80;;
61709;SDS011;47633;51.494;5.386;2023-09-12T14:22:54;8.50;;;6.70;;
61709;SDS011;47633;51.494;5.386;2023-09-12T14:25:21;9.60;;;6.85;;
61709;SDS011;47633;51.494;5.386;2023-09-12T14:27:47;10.70;;;6.60;;
61709;SDS011;47633;51.494;5.386;2023-09-12T14:30:12;7.60;;;6.18;;
61709;SDS011;47633;51.494;5.386;2023-09-12T14:32:40;8.15;;;6.75;;
61709;SDS011;47633;51.494;5.386;2023-09-12T14:35:06;7.72;;;6.07;;
61709;SDS011;47633;51.494;5.386;2023-09-12T14:37:32;9.93;;;6.85;;
61709;SDS011;47633;51.494;5.386;2023-09-12T14:39:58;8.00;;;6.20;;
61709;SDS011;47633;51.494;5.386;2023-09-12T14:42:24;7.68;;;5.88;;
61709;SDS011;47633;51.494;5.386;2023-09-12T14:44:49;8.30;;;6.07;;
61709;SDS011;47633;51.494;5.386;2023-09-12T14:47:15;8.67;;;6.10;;
61709;SDS011;47633;51.494;5.386;2023-09-12T14:49:40;8.40;;;6.32;;
61709;SDS011;47633;51.494;5.386;2023-09-12T14:52:06;9.02;;;6.90;;
61709;SDS011;47633;51.494;5.386;2023-09-12T14:54:31;7.88;;;6.45;;
61709;SDS011;47633;51.494;5.386;2023-09-12T14:56:56;8.23;;;6.30;;
61709;SDS011;47633;51.494;5.386;2023-09-12T14:59:22;7.70;;;6.18;;